Time;durP1;ratioP1;P1;durP2;ratioP2;P2;SDS_P1;SDS_P2;PMS_P1;PMS_P2;Temp;Humidity;BMP_temperature;BMP_pressure;BME280_temperature;BME280_humidity;BME280_pressure;Samples;Min_cycle;Max_cycle;Signal;HPM_P1;HPM_P2
2022/07/25 00:02:11;;;;;;;4.53;1.93;;;19.30;92.80;;;;;;5055578;28;20451;-95
2022/07/25 00:04:37;;;;;;;1.63;1.53;;;19.20;93.10;;;;;;5056207;28;20446;-95
2022/07/25 00:07:10;;;;;;;2.90;2.70;;;19.20;93.20;;;;;;5048767;28;20215;-94
2022/07/25 00:09:36;;;;;;;1.87;1.77;;;19.10;93.40;;;;;;5045003;28;20225;-93
2022/07/25 00:12:06;;;;;;;1.73;1.60;;;19.10;93.50;;;;;;5043369;28;20446;-94
2022/07/25 00:14:36;;;;;;;4.80;1.70;;;19.10;93.40;;;;;;5046417;28;20179;-95
2022/07/25 00:19:48;;;;;;;3.30;2.17;;;19.10;93.70;;;;;;5043694;28;20488;-92
2022/07/25 00:22:16;;;;;;;1.73;1.67;;;19.10;93.60;;;;;;5045816;28;20446;-93
2022/07/25 00:24:46;;;;;;;2.73;2.37;;;19.10;93.50;;;;;;5045422;28;20180;-92
2022/07/25 00:27:17;;;;;;;1.53;1.53;;;19.10;93.40;;;;;;5043826;28;20486;-91
2022/07/25 00:29:50;;;;;;;2.07;1.90;;;19.10;93.30;;;;;;5044135;28;20457;-92
2022/07/25 00:32:15;;;;;;;1.77;1.67;;;19.10;93.00;;;;;;5043611;28;20431;-92
2022/07/25 00:34:41;;;;;;;1.97;1.60;;;19.20;92.80;;;;;;5043054;28;20490;-92
2022/07/25 00:37:06;;;;;;;3.40;2.13;;;19.10;93.10;;;;;;5044442;28;20184;-93
2022/07/25 00:39:32;;;;;;;1.73;1.63;;;19.10;92.80;;;;;;5045163;28;20337;-92
2022/07/25 00:41:57;;;;;;;1.67;1.63;;;19.20;92.60;;;;;;5043381;28;20230;-93
2022/07/25 00:44:24;;;;;;;1.70;1.60;;;19.20;92.50;;;;;;5042271;28;20210;-93
2022/07/25 00:46:49;;;;;;;1.73;1.70;;;19.20;91.90;;;;;;5045030;28;20176;-93
2022/07/25 00:49:15;;;;;;;2.03;1.67;;;19.20;92.00;;;;;;5044338;28;20430;-92
2022/07/25 00:51:40;;;;;;;1.40;1.40;;;19.20;92.30;;;;;;5044108;28;20212;-92
2022/07/25 00:54:06;;;;;;;2.00;1.43;;;19.20;92.70;;;;;;5043380;28;20234;-92
2022/07/25 00:56:32;;;;;;;1.73;1.20;;;19.10;93.10;;;;;;5044543;28;20195;-93
2022/07/25 00:58:57;;;;;;;2.10;1.60;;;19.10;93.00;;;;;;5043812;28;20239;-92
2022/07/25 01:01:26;;;;;;;2.50;2.23;;;19.10;93.00;;;;;;5044539;28;20239;-92
2022/07/25 01:03:51;;;;;;;1.77;1.67;;;19.10;93.10;;;;;;5044279;28;20203;-91
2022/07/25 01:06:18;;;;;;;1.73;1.63;;;19.00;93.10;;;;;;5037748;28;20429;-94
2022/07/25 01:08:47;;;;;;;2.33;2.13;;;19.00;93.30;;;;;;5044041;28;20209;-92
2022/07/25 01:11:15;;;;;;;5.33;2.87;;;19.00;93.30;;;;;;5043726;28;20486;-92
2022/07/25 01:13:41;;;;;;;1.97;1.87;;;18.90;93.20;;;;;;5028529;28;21047;-91
2022/07/25 01:16:06;;;;;;;30.07;2.63;;;18.90;93.40;;;;;;5042888;28;20415;-92
2022/07/25 01:18:33;;;;;;;2.07;1.40;;;18.90;93.50;;;;;;5043054;28;20263;-92
2022/07/25 01:20:59;;;;;;;2.77;2.17;;;18.80;93.60;;;;;;5042427;28;20218;-91
2022/07/25 01:23:25;;;;;;;1.73;1.67;;;18.80;93.40;;;;;;5042505;28;20538;-93
2022/07/25 01:25:50;;;;;;;3.43;1.77;;;18.80;93.00;;;;;;5042126;28;20430;-92
2022/07/25 01:28:17;;;;;;;2.13;1.30;;;18.80;93.20;;;;;;5042126;28;20694;-93
2022/07/25 01:30:42;;;;;;;2.33;2.13;;;18.80;93.20;;;;;;5042114;28;20175;-91
2022/07/25 01:33:08;;;;;;;1.83;1.70;;;18.70;92.90;;;;;;5041246;28;20439;-92
2022/07/25 01:35:36;;;;;;;1.50;1.40;;;18.70;93.00;;;;;;5041995;28;20184;-92
2022/07/25 01:38:04;;;;;;;2.53;1.57;;;18.70;92.80;;;;;;5041015;28;20192;-93
2022/07/25 01:40:29;;;;;;;1.37;1.33;;;18.70;92.90;;;;;;5041027;28;20496;-91
2022/07/25 01:42:56;;;;;;;3.20;2.20;;;18.70;92.80;;;;;;5041191;28;20565;-92
2022/07/25 01:45:22;;;;;;;1.93;1.83;;;18.70;92.70;;;;;;5041108;28;20438;-92
2022/07/25 01:47:47;;;;;;;2.50;1.80;;;18.70;92.90;;;;;;5041198;28;20179;-92
2022/07/25 01:50:22;;;;;;;1.83;1.80;;;18.70;93.10;;;;;;5058493;28;20226;-91
2022/07/25 01:52:48;;;;;;;1.80;1.70;;;18.70;93.10;;;;;;5041825;28;20226;-92
2022/07/25 01:55:16;;;;;;;2.40;1.90;;;18.70;93.30;;;;;;5041643;28;20406;-91
2022/07/25 01:57:42;;;;;;;1.70;1.63;;;18.70;93.60;;;;;;5042167;28;20212;-92
2022/07/25 02:00:12;;;;;;;1.93;1.83;;;18.60;93.70;;;;;;5051798;28;20429;-93
2022/07/25 02:02:39;;;;;;;2.37;2.00;;;18.60;93.90;;;;;;5043235;28;20207;-92
2022/07/25 02:05:06;;;;;;;3.37;2.00;;;18.60;94.10;;;;;;5050752;28;20794;-91
2022/07/25 02:07:35;;;;;;;4.53;1.80;;;18.50;94.50;;;;;;5040748;28;20505;-92
2022/07/25 02:10:02;;;;;;;1.93;1.40;;;18.50;94.60;;;;;;5040627;28;20451;-92
2022/07/25 02:12:28;;;;;;;1.40;1.30;;;18.50;94.70;;;;;;5040011;28;20434;-91
2022/07/25 02:14:56;;;;;;;1.53;1.40;;;18.40;94.50;;;;;;5039668;28;20486;-92
2022/07/25 02:17:29;;;;;;;1.87;1.63;;;18.40;94.40;;;;;;5050898;28;20255;-93
2022/07/25 02:19:56;;;;;;;2.80;2.27;;;18.40;94.50;;;;;;5040445;28;20548;-92
2022/07/25 02:22:24;;;;;;;2.83;2.47;;;18.40;94.20;;;;;;5039415;28;20525;-92
2022/07/25 02:24:50;;;;;;;2.57;2.30;;;18.40;93.90;;;;;;5039493;28;20417;-92
2022/07/25 02:27:18;;;;;;;4.27;2.30;;;18.40;93.80;;;;;;5039823;28;20411;-92
2022/07/25 02:29:46;;;;;;;1.60;1.50;;;18.40;93.60;;;;;;5038939;28;20176;-92
2022/07/25 02:32:11;;;;;;;5.40;1.80;;;18.40;93.60;;;;;;5039219;28;20473;-93
2022/07/25 02:34:37;;;;;;;1.63;1.53;;;18.50;93.60;;;;;;5039186;28;20426;-91
2022/07/25 02:37:05;;;;;;;5.50;2.90;;;18.50;93.70;;;;;;5039705;28;20191;-92
2022/07/25 02:39:31;;;;;;;1.73;1.63;;;18.60;93.60;;;;;;5038984;28;20207;-92
2022/07/25 02:41:56;;;;;;;3.13;2.77;;;18.60;93.70;;;;;;5039269;28;20488;-92
2022/07/25 02:44:22;;;;;;;1.60;1.50;;;18.60;93.60;;;;;;5039126;28;20302;-91
2022/07/25 02:46:47;;;;;;;2.00;1.90;;;18.60;93.60;;;;;;5038930;28;20180;-92
2022/07/25 02:49:13;;;;;;;2.37;2.20;;;18.60;93.60;;;;;;5038917;28;20187;-92
2022/07/25 02:51:38;;;;;;;3.47;2.43;;;18.60;93.70;;;;;;5039199;28;20203;-92
2022/07/25 02:54:06;;;;;;;1.77;1.67;;;18.60;93.90;;;;;;5038453;28;20176;-92
2022/07/25 02:56:32;;;;;;;2.53;2.40;;;18.60;93.90;;;;;;5038924;28;20180;-92
2022/07/25 02:58:57;;;;;;;1.43;1.30;;;18.60;94.00;;;;;;5039846;28;20552;-91
2022/07/25 03:01:23;;;;;;;2.63;2.43;;;18.50;94.10;;;;;;5038864;28;20176;-92
2022/07/25 03:03:48;;;;;;;2.63;2.50;;;18.50;94.20;;;;;;5038504;28;20172;-92
2022/07/25 03:06:14;;;;;;;2.03;1.90;;;18.50;94.20;;;;;;5038882;28;20176;-92
2022/07/25 03:08:40;;;;;;;2.60;2.30;;;18.50;94.20;;;;;;5038987;28;20206;-92
2022/07/25 03:11:05;;;;;;;2.40;2.07;;;18.50;94.30;;;;;;5038213;28;20436;-91
2022/07/25 03:13:32;;;;;;;1.77;1.60;;;18.40;94.20;;;;;;5038815;28;20266;-92
2022/07/25 03:15:57;;;;;;;1.83;1.70;;;18.40;94.40;;;;;;5036239;28;20283;-92
2022/07/25 03:18:30;;;;;;;2.97;2.77;;;18.40;94.50;;;;;;5046971;28;20688;-91
2022/07/25 03:20:56;;;;;;;3.73;2.83;;;18.40;94.60;;;;;;5038440;28;20263;-92
2022/07/25 03:23:26;;;;;;;1.80;1.70;;;18.40;94.90;;;;;;5038243;28;20473;-92
2022/07/25 03:25:58;;;;;;;4.37;2.70;;;18.40;95.00;;;;;;5038406;28;20172;-92
2022/07/25 03:28:24;;;;;;;5.20;3.13;;;18.30;95.10;;;;;;5038474;28;20545;-92
2022/07/25 03:30:53;;;;;;;1.77;1.67;;;18.30;95.20;;;;;;5037624;28;20423;-93
2022/07/25 03:33:18;;;;;;;2.97;2.77;;;18.30;95.10;;;;;;5038538;28;20211;-93
2022/07/25 03:35:44;;;;;;;1.77;1.70;;;18.30;95.10;;;;;;5025645;28;20571;-91
2022/07/25 03:38:10;;;;;;;3.37;2.37;;;18.30;95.20;;;;;;5038595;28;20290;-92
2022/07/25 03:40:38;;;;;;;4.60;2.10;;;18.30;95.40;;;;;;5039429;28;20180;-91
2022/07/25 03:43:04;;;;;;;2.63;2.43;;;18.30;95.40;;;;;;5042623;28;20238;-92
2022/07/25 03:45:29;;;;;;;2.87;2.60;;;18.30;95.30;;;;;;5043985;28;20921;-92
2022/07/25 03:47:57;;;;;;;4.43;3.10;;;18.30;95.40;;;;;;5044771;28;20190;-92
2022/07/25 03:50:22;;;;;;;2.97;2.00;;;18.30;95.30;;;;;;5043601;28;20176;-91
2022/07/25 03:52:48;;;;;;;3.20;2.70;;;18.30;95.40;;;;;;5026339;28;20441;-92
2022/07/25 03:55:14;;;;;;;3.20;2.60;;;18.30;95.30;;;;;;5042433;28;20657;-93
2022/07/25 03:57:39;;;;;;;2.27;2.07;;;18.30;95.80;;;;;;5042932;28;20176;-93
2022/07/25 04:00:08;;;;;;;2.90;2.50;;;18.40;95.70;;;;;;5042616;28;20267;-92
2022/07/25 04:02:36;;;;;;;2.90;2.70;;;18.30;95.60;;;;;;5044048;28;20801;-92
2022/07/25 04:05:06;;;;;;;3.83;2.63;;;18.30;95.70;;;;;;5041994;28;20421;-91
2022/07/25 04:07:35;;;;;;;4.37;1.97;;;18.30;95.60;;;;;;5042776;28;20505;-92
2022/07/25 04:10:01;;;;;;;3.57;2.03;;;18.40;95.70;;;;;;5042419;28;20507;-91
2022/07/25 04:12:27;;;;;;;1.90;1.80;;;18.40;95.90;;;;;;5043141;28;20481;-92
2022/07/25 04:14:52;;;;;;;6.00;3.60;;;18.40;95.80;;;;;;5042195;28;20440;-92
2022/07/25 04:17:18;;;;;;;2.93;2.53;;;18.40;95.90;;;;;;5043351;28;20270;-92
2022/07/25 04:19:50;;;;;;;3.60;2.30;;;18.40;96.00;;;;;;5042251;28;20233;-93
2022/07/25 04:22:16;;;;;;;7.87;3.20;;;18.40;95.90;;;;;;5042624;28;20219;-92
2022/07/25 04:24:41;;;;;;;3.73;2.27;;;18.40;96.00;;;;;;5042417;28;20426;-92
2022/07/25 04:27:07;;;;;;;6.43;2.63;;;18.40;96.20;;;;;;5041856;28;20184;-91
2022/07/25 04:29:37;;;;;;;2.30;2.10;;;18.40;96.30;;;;;;5042064;28;20183;-91
2022/07/25 04:32:06;;;;;;;3.00;2.80;;;18.40;96.30;;;;;;5041747;28;20295;-91
2022/07/25 04:34:39;;;;;;;6.40;2.77;;;18.40;96.30;;;;;;5041525;28;20418;-91
2022/07/25 04:37:07;;;;;;;2.70;2.53;;;18.50;96.50;;;;;;5042308;28;20418;-92
2022/07/25 04:39:33;;;;;;;6.70;2.97;;;18.50;96.70;;;;;;5043011;28;20454;-93
2022/07/25 04:41:58;;;;;;;3.10;2.33;;;18.50;96.40;;;;;;5044463;28;21166;-92
2022/07/25 04:44:26;;;;;;;5.40;2.77;;;18.50;96.60;;;;;;5034026;28;20197;-92
2022/07/25 04:46:54;;;;;;;9.63;3.70;;;18.50;96.50;;;;;;5045221;28;20188;-92
2022/07/25 04:49:20;;;;;;;5.47;3.17;;;18.60;96.90;;;;;;5058195;28;20459;-95
2022/07/25 04:51:48;;;;;;;1.80;1.70;;;18.60;96.90;;;;;;5068590;28;20517;-94
2022/07/25 04:54:13;;;;;;;7.17;3.60;;;18.60;97.10;;;;;;5068124;28;20473;-94
2022/07/25 04:56:39;;;;;;;2.20;2.00;;;18.70;96.90;;;;;;5058378;28;20438;-93
2022/07/25 04:59:07;;;;;;;2.63;2.33;;;18.70;96.80;;;;;;5045753;28;20196;-94
2022/07/25 05:01:35;;;;;;;2.33;2.10;;;18.70;97.00;;;;;;5055938;28;20267;-92
2022/07/25 05:04:00;;;;;;;2.47;2.27;;;18.70;97.20;;;;;;5045445;28;20411;-93
2022/07/25 05:06:26;;;;;;;4.03;3.00;;;18.80;97.30;;;;;;5042463;28;20499;-94
2022/07/25 05:08:54;;;;;;;11.00;2.53;;;18.80;97.10;;;;;;5045966;28;20183;-92
2022/07/25 05:11:19;;;;;;;3.57;2.80;;;18.90;97.30;;;;;;5047190;28;20380;-92
2022/07/25 05:13:45;;;;;;;4.20;2.47;;;18.90;97.10;;;;;;5047326;28;20476;-92
2022/07/25 05:16:10;;;;;;;6.27;3.27;;;19.00;97.30;;;;;;5046445;28;20177;-93
2022/07/25 05:18:36;;;;;;;6.17;3.30;;;19.10;97.20;;;;;;5047241;28;20196;-93
2022/07/25 05:21:08;;;;;;;3.70;2.90;;;19.10;97.30;;;;;;5045126;28;20176;-95
2022/07/25 05:23:35;;;;;;;16.00;4.37;;;19.20;97.30;;;;;;5038322;28;20199;-95
2022/07/25 05:26:03;;;;;;;4.17;2.00;;;19.20;97.30;;;;;;5047493;28;20410;-96
2022/07/25 05:28:29;;;;;;;4.97;3.07;;;19.30;97.30;;;;;;5048177;28;20430;-95
2022/07/25 05:30:57;;;;;;;2.27;2.07;;;19.40;97.30;;;;;;5048849;28;20422;-95
2022/07/25 05:33:22;;;;;;;3.00;2.80;;;19.40;97.30;;;;;;5048024;28;20443;-95
2022/07/25 05:35:48;;;;;;;2.53;2.33;;;19.50;97.30;;;;;;5048445;28;20432;-94
2022/07/25 05:38:21;;;;;;;2.90;2.50;;;19.60;97.30;;;;;;5048789;28;20195;-95
2022/07/25 05:40:46;;;;;;;3.07;2.87;;;19.70;97.30;;;;;;5061155;23;20206;-85
2022/07/25 05:43:12;;;;;;;8.90;4.80;;;19.80;97.30;;;;;;5028235;23;20503;-86
2022/07/25 05:45:37;;;;;;;8.00;4.37;;;19.90;97.20;;;;;;5014363;28;20172;-85
2022/07/25 05:48:03;;;;;;;4.17;2.93;;;20.00;97.30;;;;;;5013883;28;20219;-86
2022/07/25 05:50:29;;;;;;;3.60;3.40;;;20.10;97.30;;;;;;5013675;28;20215;-85
2022/07/25 05:52:55;;;;;;;3.37;3.17;;;20.20;97.20;;;;;;4999044;28;20694;-85
2022/07/25 05:55:21;;;;;;;7.67;4.17;;;20.30;97.10;;;;;;4994400;28;20448;-86
2022/07/25 05:57:46;;;;;;;5.87;2.80;;;20.40;96.60;;;;;;5006479;28;20176;-85
2022/07/25 06:00:12;;;;;;;3.33;2.63;;;20.60;96.10;;;;;;4999592;28;20423;-86
2022/07/25 06:02:38;;;;;;;3.73;2.97;;;20.70;95.90;;;;;;5002232;28;20601;-85
2022/07/25 06:05:04;;;;;;;2.63;2.50;;;20.90;95.50;;;;;;4998492;28;20502;-85
2022/07/25 06:07:30;;;;;;;7.60;3.37;;;21.00;95.20;;;;;;5007056;28;20579;-85
2022/07/25 06:09:55;;;;;;;10.17;4.07;;;21.10;95.10;;;;;;5012913;28;20180;-85
2022/07/25 06:12:22;;;;;;;8.03;3.17;;;21.30;95.00;;;;;;5001885;28;20196;-85
2022/07/25 06:14:47;;;;;;;4.90;3.37;;;21.40;94.40;;;;;;4993991;28;20212;-86
2022/07/25 06:17:13;;;;;;;2.33;2.23;;;21.50;94.60;;;;;;5000590;28;20486;-86
2022/07/25 06:19:38;;;;;;;3.67;2.33;;;21.60;94.90;;;;;;5004191;28;20212;-85
2022/07/25 06:22:04;;;;;;;2.67;2.47;;;21.70;93.80;;;;;;4995969;28;20169;-85
2022/07/25 06:24:29;;;;;;;5.67;4.50;;;21.90;94.20;;;;;;4993846;28;20201;-85
2022/07/25 06:26:55;;;;;;;14.97;2.77;;;22.00;93.30;;;;;;5011169;28;20182;-86
2022/07/25 06:29:21;;;;;;;5.50;3.67;;;22.20;93.40;;;;;;4993849;28;20295;-86
2022/07/25 06:31:46;;;;;;;3.93;3.20;;;22.30;93.40;;;;;;5024440;28;20180;-86
2022/07/25 06:34:12;;;;;;;3.80;3.53;;;22.40;92.90;;;;;;5002599;28;20214;-86
2022/07/25 06:36:37;;;;;;;3.77;3.03;;;22.50;92.80;;;;;;4999873;28;20220;-86
2022/07/25 06:39:03;;;;;;;3.90;3.37;;;22.70;92.50;;;;;;5012771;28;20204;-86
2022/07/25 06:41:28;;;;;;;4.70;3.10;;;22.80;91.80;;;;;;4997394;28;20247;-86
2022/07/25 06:43:54;;;;;;;6.90;3.57;;;22.90;91.20;;;;;;5001989;28;20232;-86
2022/07/25 06:46:19;;;;;;;3.50;3.03;;;23.10;91.30;;;;;;5012414;28;20184;-86
2022/07/25 06:48:45;;;;;;;3.83;3.30;;;23.30;90.60;;;;;;5012929;28;20254;-86
2022/07/25 06:51:11;;;;;;;4.10;3.47;;;23.40;89.60;;;;;;5027336;28;20181;-85
2022/07/25 06:53:36;;;;;;;5.30;3.00;;;23.60;89.70;;;;;;4993484;28;20188;-85
2022/07/25 06:56:03;;;;;;;15.30;3.47;;;23.80;89.40;;;;;;4993670;28;20235;-86
2022/07/25 06:58:28;;;;;;;6.50;3.23;;;23.90;89.30;;;;;;4993143;28;20785;-84
2022/07/25 07:00:54;;;;;;;7.13;3.00;;;24.00;89.00;;;;;;5009331;28;20511;-86
2022/07/25 07:03:20;;;;;;;3.07;2.87;;;24.20;88.00;;;;;;5003198;28;20208;-86
2022/07/25 07:05:46;;;;;;;3.80;2.40;;;24.40;86.80;;;;;;5008646;28;20181;-86
2022/07/25 07:08:11;;;;;;;4.97;3.07;;;24.50;87.60;;;;;;5002761;28;20460;-86
2022/07/25 07:10:39;;;;;;;4.27;3.20;;;24.70;86.70;;;;;;5026687;28;20532;-86
2022/07/25 07:13:10;;;;;;;4.07;3.20;;;24.80;87.20;;;;;;5012312;28;20180;-85
2022/07/25 07:15:36;;;;;;;4.40;3.20;;;25.00;87.00;;;;;;5011260;28;20940;-86
2022/07/25 07:18:02;;;;;;;7.30;4.53;;;25.10;86.30;;;;;;5001862;28;20868;-86
2022/07/25 07:20:28;;;;;;;3.30;3.00;;;25.20;85.20;;;;;;5006116;28;20459;-86
2022/07/25 07:22:54;;;;;;;3.00;2.70;;;25.40;85.10;;;;;;4993173;28;20491;-86
2022/07/25 07:25:20;;;;;;;5.17;4.03;;;25.50;84.10;;;;;;4993108;28;20176;-86
2022/07/25 07:27:46;;;;;;;5.20;4.23;;;25.60;84.60;;;;;;4993480;28;20184;-85
2022/07/25 07:30:15;;;;;;;5.53;3.70;;;25.80;84.40;;;;;;5027480;28;20439;-86
2022/07/25 07:32:42;;;;;;;4.77;4.17;;;26.00;84.40;;;;;;5001176;28;20451;-86
2022/07/25 07:35:09;;;;;;;2.90;2.57;;;26.20;83.80;;;;;;5010254;28;20422;-86
2022/07/25 07:37:35;;;;;;;2.80;2.20;;;26.30;84.50;;;;;;5012361;28;20815;-86
2022/07/25 07:40:01;;;;;;;3.80;2.80;;;26.40;83.40;;;;;;5029332;28;20481;-86
2022/07/25 07:42:26;;;;;;;9.30;4.53;;;26.50;82.20;;;;;;5000673;28;20315;-86
2022/07/25 07:44:52;;;;;;;4.10;3.80;;;26.70;83.50;;;;;;5010751;28;20181;-87
2022/07/25 07:47:17;;;;;;;2.70;2.50;;;26.80;82.50;;;;;;5004183;28;20199;-86
2022/07/25 07:49:43;;;;;;;2.63;2.43;;;27.00;82.60;;;;;;5006129;28;20219;-87
2022/07/25 07:52:08;;;;;;;5.03;2.77;;;27.10;82.00;;;;;;5004005;28;20185;-86
2022/07/25 07:57:18;;;;;;;3.53;3.40;;;27.50;81.40;;;;;;5010550;28;20273;-87
2022/07/25 07:59:44;;;;;;;3.20;2.37;;;27.60;81.00;;;;;;5011113;28;20530;-86
2022/07/25 08:02:09;;;;;;;6.93;2.63;;;27.70;80.40;;;;;;5011141;28;20173;-86
2022/07/25 08:04:35;;;;;;;3.73;3.07;;;27.90;80.90;;;;;;5010617;28;20177;-86
2022/07/25 08:07:00;;;;;;;3.67;2.77;;;28.00;79.30;;;;;;5011721;28;20173;-86
2022/07/25 08:09:26;;;;;;;5.93;3.63;;;28.10;80.10;;;;;;4994014;28;20300;-86
2022/07/25 08:11:52;;;;;;;4.17;2.70;;;28.30;80.80;;;;;;4994607;28;20208;-86
2022/07/25 08:14:18;;;;;;;3.00;2.43;;;28.50;78.40;;;;;;4994313;28;20205;-86
2022/07/25 08:16:43;;;;;;;4.90;3.80;;;28.70;78.20;;;;;;5004103;28;20194;-86
2022/07/25 08:19:09;;;;;;;9.47;4.17;;;28.80;77.00;;;;;;5009375;28;20737;-86
2022/07/25 08:21:35;;;;;;;4.00;3.60;;;29.00;77.10;;;;;;5000282;28;20182;-87
2022/07/25 08:24:00;;;;;;;4.17;3.17;;;29.20;76.80;;;;;;4994596;28;20172;-86
2022/07/25 08:26:26;;;;;;;4.90;3.30;;;29.40;76.50;;;;;;5004937;28;20283;-87
2022/07/25 08:28:52;;;;;;;3.77;2.63;;;29.50;76.90;;;;;;5008599;28;20201;-86
2022/07/25 08:31:18;;;;;;;3.47;2.13;;;29.70;76.80;;;;;;4996472;28;20946;-86
2022/07/25 08:33:43;;;;;;;4.33;4.10;;;29.90;76.10;;;;;;4995977;28;20420;-88
2022/07/25 08:36:10;;;;;;;3.93;2.60;;;30.10;74.40;;;;;;5009168;28;20600;-86
2022/07/25 08:38:36;;;;;;;3.13;2.03;;;30.20;73.50;;;;;;5002514;28;20283;-86
2022/07/25 08:41:02;;;;;;;3.53;2.90;;;30.30;72.90;;;;;;5002324;28;20503;-86
2022/07/25 08:43:31;;;;;;;4.23;2.67;;;30.40;72.80;;;;;;4976371;28;20233;-87
2022/07/25 08:46:00;;;;;;;3.90;3.77;;;30.60;72.00;;;;;;4991210;28;20424;-87
2022/07/25 08:48:25;;;;;;;3.20;3.00;;;30.60;72.00;;;;;;4996204;28;20475;-86
2022/07/25 08:50:52;;;;;;;4.00;2.20;;;30.70;72.30;;;;;;5008976;28;20505;-86
2022/07/25 08:53:19;;;;;;;4.67;3.00;;;30.80;72.50;;;;;;4995742;28;20240;-86
2022/07/25 08:55:46;;;;;;;3.37;2.17;;;30.90;71.90;;;;;;4995844;28;20478;-88
2022/07/25 08:58:13;;;;;;;3.83;3.07;;;30.90;71.80;;;;;;5020601;28;20552;-86
2022/07/25 09:00:39;;;;;;;2.83;2.53;;;31.00;71.00;;;;;;5013890;28;20951;-86
2022/07/25 09:03:05;;;;;;;3.10;2.53;;;31.20;70.80;;;;;;4995614;28;20417;-86
2022/07/25 09:05:31;;;;;;;5.57;3.73;;;31.30;70.80;;;;;;5008853;28;20510;-87
2022/07/25 09:08:05;;;;;;;7.27;2.90;;;31.50;70.30;;;;;;5008074;28;20193;-86
2022/07/25 09:10:31;;;;;;;3.73;2.90;;;31.60;70.20;;;;;;5015447;28;20904;-86
2022/07/25 09:13:00;;;;;;;4.20;3.20;;;31.70;70.20;;;;;;5031889;28;20411;-87
2022/07/25 09:15:26;;;;;;;2.40;1.93;;;31.90;70.60;;;;;;5012014;28;20189;-86
2022/07/25 09:17:52;;;;;;;3.20;3.00;;;32.00;68.50;;;;;;5012336;28;20942;-87
2022/07/25 09:20:18;;;;;;;3.17;2.97;;;32.10;69.10;;;;;;5008357;28;20211;-87
2022/07/25 09:22:44;;;;;;;4.97;2.80;;;32.30;68.60;;;;;;5013953;28;20856;-86
2022/07/25 09:25:30;;;;;;;2.43;2.00;;;32.40;69.30;;;;;;5011142;28;20459;-87
2022/07/25 09:28:09;;;;;;;3.67;2.37;;;32.50;69.10;;;;;;5006290;28;20200;-88
2022/07/25 09:30:34;;;;;;;2.40;2.20;;;32.50;68.50;;;;;;5007215;28;20435;-87
2022/07/25 09:33:00;;;;;;;4.50;2.53;;;32.60;68.00;;;;;;4996090;28;20577;-87
2022/07/25 09:35:34;;;;;;;5.17;3.70;;;32.60;68.10;;;;;;4995959;28;20209;-87
2022/07/25 09:38:11;;;;;;;4.00;2.70;;;32.60;68.70;;;;;;5006774;28;20450;-87
2022/07/25 09:40:38;;;;;;;2.97;2.67;;;32.70;68.10;;;;;;5005153;28;20507;-87
2022/07/25 09:43:04;;;;;;;2.63;2.40;;;32.80;67.60;;;;;;5007434;28;20471;-87
2022/07/25 09:45:29;;;;;;;4.97;3.40;;;32.90;68.20;;;;;;4995141;28;20743;-85
2022/07/25 09:47:58;;;;;;;2.07;1.93;;;33.00;68.20;;;;;;4995695;28;20268;-85
2022/07/25 09:50:25;;;;;;;2.67;2.50;;;33.10;67.10;;;;;;4995188;28;20173;-85
2022/07/25 09:52:53;;;;;;;3.03;2.67;;;33.20;67.10;;;;;;4997977;28;20469;-85
2022/07/25 09:55:20;;;;;;;2.87;2.40;;;33.30;66.10;;;;;;5014162;28;20422;-85
2022/07/25 09:57:47;;;;;;;2.50;2.30;;;33.40;66.60;;;;;;5009698;28;20416;-85
2022/07/25 10:00:17;;;;;;;2.07;1.93;;;33.50;66.30;;;;;;4994587;28;20463;-85
2022/07/25 10:02:54;;;;;;;3.77;3.60;;;33.50;65.30;;;;;;5007730;28;20428;-87
2022/07/25 10:05:35;;;;;;;2.70;2.13;;;33.60;66.00;;;;;;5012614;28;20422;-85
2022/07/25 10:08:06;;;;;;;2.63;2.13;;;33.70;66.30;;;;;;4975089;28;20468;-85
2022/07/25 10:10:37;;;;;;;2.27;2.07;;;33.60;65.30;;;;;;4992560;28;20906;-85
2022/07/25 10:13:27;;;;;;;3.00;2.03;;;33.50;66.00;;;;;;5004055;28;20424;-85
2022/07/25 10:15:53;;;;;;;3.23;3.03;;;33.40;66.00;;;;;;5024408;28;20451;-86
2022/07/25 10:18:22;;;;;;;4.23;3.20;;;33.50;65.20;;;;;;4994723;28;20471;-85
2022/07/25 10:20:49;;;;;;;2.70;2.50;;;33.60;65.30;;;;;;4994946;28;20455;-84
2022/07/25 10:23:26;;;;;;;3.83;3.63;;;33.40;65.60;;;;;;4994653;28;20421;-85
2022/07/25 10:26:08;;;;;;;4.10;3.10;;;33.50;65.10;;;;;;5002715;28;20423;-85
2022/07/25 10:28:44;;;;;;;4.30;2.07;;;33.50;65.40;;;;;;4996938;28;20440;-85
2022/07/25 10:31:26;;;;;;;2.40;1.90;;;33.60;65.50;;;;;;5005730;28;20513;-85
2022/07/25 10:34:01;;;;;;;4.57;2.90;;;33.70;64.10;;;;;;5006270;28;20944;-85
2022/07/25 10:36:41;;;;;;;3.60;2.43;;;33.80;64.00;;;;;;5011532;28;20808;-85
2022/07/25 10:39:08;;;;;;;2.40;2.27;;;34.00;64.30;;;;;;4994321;28;21108;-85
2022/07/25 10:41:38;;;;;;;2.87;2.30;;;34.10;63.60;;;;;;4994601;28;20425;-85
2022/07/25 10:44:11;;;;;;;3.90;2.20;;;34.20;64.00;;;;;;4993638;28;20468;-85
2022/07/25 10:46:36;;;;;;;1.80;1.70;;;34.30;62.90;;;;;;5029518;28;20407;-85
2022/07/25 10:49:04;;;;;;;2.83;2.73;;;34.40;62.80;;;;;;5000844;28;20823;-85
2022/07/25 10:51:35;;;;;;;4.17;2.80;;;34.50;62.40;;;;;;5007270;28;20467;-85
2022/07/25 10:54:16;;;;;;;6.10;3.57;;;34.50;62.30;;;;;;5011937;28;20944;-84
2022/07/25 10:56:57;;;;;;;2.00;1.90;;;34.30;62.70;;;;;;4983086;28;20956;-85
2022/07/25 10:59:35;;;;;;;3.30;2.53;;;34.20;63.50;;;;;;4997244;28;20521;-87
2022/07/25 11:02:03;;;;;;;5.20;3.63;;;34.10;63.40;;;;;;5013682;28;20978;-86
2022/07/25 11:04:29;;;;;;;1.70;1.60;;;34.10;64.00;;;;;;5012980;28;20432;-86
2022/07/25 11:06:55;;;;;;;2.30;1.67;;;34.20;63.80;;;;;;5000128;28;20424;-86
2022/07/25 11:09:26;;;;;;;2.90;2.70;;;34.40;62.50;;;;;;5016924;28;20462;-85
2022/07/25 11:11:57;;;;;;;4.00;2.80;;;34.50;62.30;;;;;;5000126;28;20507;-84
2022/07/25 11:14:31;;;;;;;2.60;2.33;;;34.60;61.30;;;;;;5005562;28;20430;-85
2022/07/25 11:17:07;;;;;;;2.37;2.03;;;34.70;61.80;;;;;;5005922;28;20901;-85
2022/07/25 11:19:33;;;;;;;2.50;2.23;;;34.70;60.40;;;;;;4992940;28;20475;-85
2022/07/25 11:22:03;;;;;;;2.83;2.20;;;34.80;61.40;;;;;;4996055;28;20423;-86
2022/07/25 11:24:43;;;;;;;6.83;2.60;;;35.00;61.50;;;;;;5002827;28;20265;-86
2022/07/25 11:27:12;;;;;;;6.70;2.80;;;35.10;61.90;;;;;;4993166;28;20427;-86
2022/07/25 11:29:38;;;;;;;2.83;2.63;;;35.30;61.90;;;;;;5023264;28;20811;-86
2022/07/25 11:32:11;;;;;;;3.23;2.50;;;35.30;60.80;;;;;;5017448;28;20549;-86
2022/07/25 11:34:40;;;;;;;3.10;2.33;;;35.40;59.50;;;;;;5010898;28;20954;-87
2022/07/25 11:37:08;;;;;;;6.17;2.40;;;35.50;61.10;;;;;;4989443;28;20924;-86
2022/07/25 11:39:36;;;;;;;2.90;2.67;;;35.50;59.90;;;;;;5001705;28;20548;-86
2022/07/25 11:44:41;;;;;;;2.10;1.77;;;35.60;59.90;;;;;;5040924;28;20466;-82
2022/07/25 11:47:21;;;;;;;3.30;2.00;;;35.70;60.20;;;;;;5020571;28;20411;-81
2022/07/25 11:49:48;;;;;;;3.77;2.40;;;35.80;60.60;;;;;;5009580;28;20530;-82
2022/07/25 11:52:29;;;;;;;1.73;1.63;;;35.90;59.70;;;;;;5009641;28;20423;-81
2022/07/25 11:55:00;;;;;;;3.87;2.37;;;36.10;59.50;;;;;;5016656;28;20419;-82
2022/07/25 11:57:28;;;;;;;2.40;2.23;;;36.10;59.20;;;;;;5012514;28;20415;-81
2022/07/25 11:59:55;;;;;;;2.77;2.57;;;36.10;58.60;;;;;;5001459;28;20474;-81
2022/07/25 12:02:30;;;;;;;4.63;3.10;;;36.20;59.40;;;;;;5012176;28;20415;-82
2022/07/25 12:05:06;;;;;;;3.63;2.80;;;36.30;60.20;;;;;;5007880;28;20420;-81
2022/07/25 12:07:39;;;;;;;4.63;3.40;;;36.40;59.00;;;;;;5008780;28;20430;-82
2022/07/25 12:10:08;;;;;;;6.40;3.07;;;36.50;59.90;;;;;;4991935;28;20454;-81
2022/07/25 12:12:51;;;;;;;1.97;1.90;;;36.50;58.50;;;;;;5004765;28;20416;-82
2022/07/25 12:15:23;;;;;;;3.37;2.87;;;36.50;59.00;;;;;;5009545;28;20420;-80
2022/07/25 12:17:50;;;;;;;16.33;2.90;;;36.50;58.20;;;;;;5037528;28;20439;-81
2022/07/25 12:20:21;;;;;;;3.20;3.00;;;36.50;58.40;;;;;;5020965;28;20467;-81
2022/07/25 12:22:48;;;;;;;2.47;2.27;;;36.60;59.00;;;;;;5002896;28;21000;-81
2022/07/25 12:25:14;;;;;;;3.03;2.80;;;36.60;58.60;;;;;;5037500;28;20419;-80
2022/07/25 12:27:39;;;;;;;6.03;3.17;;;36.80;58.30;;;;;;5023322;28;20426;-81
2022/07/25 12:30:06;;;;;;;2.67;2.47;;;36.90;58.80;;;;;;5007420;28;20204;-83
2022/07/25 12:32:32;;;;;;;27.03;3.23;;;37.00;58.60;;;;;;5012997;28;20207;-80
2022/07/25 12:34:58;;;;;;;4.00;2.37;;;37.00;58.80;;;;;;5023170;28;20904;-81
2022/07/25 12:37:25;;;;;;;2.77;2.57;;;37.00;58.40;;;;;;5013839;28;20247;-82
2022/07/25 12:39:51;;;;;;;2.27;2.00;;;37.00;58.10;;;;;;5020806;28;20212;-83
2022/07/25 12:42:17;;;;;;;3.27;2.03;;;37.10;58.70;;;;;;5013275;28;20515;-81
2022/07/25 12:44:42;;;;;;;2.63;2.23;;;37.20;59.30;;;;;;5002641;28;20181;-81
2022/07/25 12:47:08;;;;;;;4.60;3.50;;;37.30;57.50;;;;;;5001995;28;20184;-81
2022/07/25 12:49:34;;;;;;;5.83;3.50;;;37.30;58.90;;;;;;5005898;28;20196;-81
2022/07/25 12:51:59;;;;;;;3.80;3.00;;;37.40;58.30;;;;;;5020994;28;20192;-81
2022/07/25 12:54:25;;;;;;;3.90;2.43;;;37.50;57.30;;;;;;5007916;28;20566;-80
2022/07/25 12:56:50;;;;;;;2.13;2.00;;;37.60;57.10;;;;;;5012017;28;20235;-82